sensor_id;sensor_type;location;lat;lon;timestamp;temperature;humidity
11229;DHT22;5671;47.936;8.716;2022-10-24T00:00:30;12.00;90.40
11229;DHT22;5671;47.936;8.716;2022-10-24T00:02:57;12.00;90.50
11229;DHT22;5671;47.936;8.716;2022-10-24T00:05:25;12.00;90.20
11229;DHT22;5671;47.936;8.716;2022-10-24T00:07:52;12.00;90.30
11229;DHT22;5671;47.936;8.716;2022-10-24T00:10:19;12.00;90.30
11229;DHT22;5671;47.936;8.716;2022-10-24T00:12:48;12.00;90.40
11229;DHT22;5671;47.936;8.716;2022-10-24T00:18:39;12.10;90.70
11229;DHT22;5671;47.936;8.716;2022-10-24T00:21:07;12.00;90.60
11229;DHT22;5671;47.936;8.716;2022-10-24T00:24:13;12.10;90.40
11229;DHT22;5671;47.936;8.716;2022-10-24T00:26:49;12.10;90.80
11229;DHT22;5671;47.936;8.716;2022-10-24T00:29:20;12.10;90.50
11229;DHT22;5671;47.936;8.716;2022-10-24T00:31:52;12.00;90.30
11229;DHT22;5671;47.936;8.716;2022-10-24T00:34:19;12.10;90.10
11229;DHT22;5671;47.936;8.716;2022-10-24T00:36:46;12.00;90.30
11229;DHT22;5671;47.936;8.716;2022-10-24T00:39:13;12.10;90.50
11229;DHT22;5671;47.936;8.716;2022-10-24T00:41:42;12.00;90.60
11229;DHT22;5671;47.936;8.716;2022-10-24T00:44:15;12.00;90.70
11229;DHT22;5671;47.936;8.716;2022-10-24T00:46:47;12.10;90.40
11229;DHT22;5671;47.936;8.716;2022-10-24T00:49:18;12.00;90.20
11229;DHT22;5671;47.936;8.716;2022-10-24T00:51:48;12.10;89.90
11229;DHT22;5671;47.936;8.716;2022-10-24T00:54:16;12.10;90.10
11229;DHT22;5671;47.936;8.716;2022-10-24T00:56:49;12.00;90.20
11229;DHT22;5671;47.936;8.716;2022-10-24T00:59:19;12.00;90.70
11229;DHT22;5671;47.936;8.716;2022-10-24T01:01:48;12.00;90.60
11229;DHT22;5671;47.936;8.716;2022-10-24T01:04:15;12.00;90.70
11229;DHT22;5671;47.936;8.716;2022-10-24T01:06:48;12.00;90.50
11229;DHT22;5671;47.936;8.716;2022-10-24T01:09:27;12.00;90.70
11229;DHT22;5671;47.936;8.716;2022-10-24T01:12:07;12.00;90.20
11229;DHT22;5671;47.936;8.716;2022-10-24T01:14:43;12.00;90.40
11229;DHT22;5671;47.936;8.716;2022-10-24T01:17:16;12.00;90.60
11229;DHT22;5671;47.936;8.716;2022-10-24T01:20:20;12.00;90.50
11229;DHT22;5671;47.936;8.716;2022-10-24T01:23:06;12.00;90.10
11229;DHT22;5671;47.936;8.716;2022-10-24T01:25:42;12.00;90.00
11229;DHT22;5671;47.936;8.716;2022-10-24T01:28:14;12.00;89.90
11229;DHT22;5671;47.936;8.716;2022-10-24T01:30:48;12.00;90.00
11229;DHT22;5671;47.936;8.716;2022-10-24T01:33:21;12.00;90.00
11229;DHT22;5671;47.936;8.716;2022-10-24T01:35:55;12.00;90.50
11229;DHT22;5671;47.936;8.716;2022-10-24T01:38:27;11.90;90.20
11229;DHT22;5671;47.936;8.716;2022-10-24T01:40:59;11.90;90.20
11229;DHT22;5671;47.936;8.716;2022-10-24T01:43:31;11.90;90.30
11229;DHT22;5671;47.936;8.716;2022-10-24T01:46:03;11.90;90.10
11229;DHT22;5671;47.936;8.716;2022-10-24T01:48:34;11.90;90.20
11229;DHT22;5671;47.936;8.716;2022-10-24T01:51:02;11.90;90.00
11229;DHT22;5671;47.936;8.716;2022-10-24T01:53:30;11.90;90.10
11229;DHT22;5671;47.936;8.716;2022-10-24T01:55:58;11.90;90.00
11229;DHT22;5671;47.936;8.716;2022-10-24T01:58:26;11.90;89.90
11229;DHT22;5671;47.936;8.716;2022-10-24T02:00:57;11.90;90.50
11229;DHT22;5671;47.936;8.716;2022-10-24T02:03:30;11.90;90.20
11229;DHT22;5671;47.936;8.716;2022-10-24T02:06:01;11.80;89.90
11229;DHT22;5671;47.936;8.716;2022-10-24T02:08:31;11.80;90.00
11229;DHT22;5671;47.936;8.716;2022-10-24T02:11:02;11.80;90.50
11229;DHT22;5671;47.936;8.716;2022-10-24T02:13:33;11.90;90.80
11229;DHT22;5671;47.936;8.716;2022-10-24T02:16:02;11.90;90.80
11229;DHT22;5671;47.936;8.716;2022-10-24T02:18:34;11.90;91.10
11229;DHT22;5671;47.936;8.716;2022-10-24T02:21:10;11.90;91.10
11229;DHT22;5671;47.936;8.716;2022-10-24T02:23:43;11.90;91.40
11229;DHT22;5671;47.936;8.716;2022-10-24T02:26:19;11.90;91.30
11229;DHT22;5671;47.936;8.716;2022-10-24T02:28:48;11.90;91.20
11229;DHT22;5671;47.936;8.716;2022-10-24T02:31:20;11.90;91.10
11229;DHT22;5671;47.936;8.716;2022-10-24T02:33:50;11.90;90.70
11229;DHT22;5671;47.936;8.716;2022-10-24T02:36:21;12.00;90.80
11229;DHT22;5671;47.936;8.716;2022-10-24T02:38:51;12.00;90.90
11229;DHT22;5671;47.936;8.716;2022-10-24T02:41:22;12.00;91.40
11229;DHT22;5671;47.936;8.716;2022-10-24T02:43:51;12.00;91.10
11229;DHT22;5671;47.936;8.716;2022-10-24T02:46:20;12.00;91.30
11229;DHT22;5671;47.936;8.716;2022-10-24T02:48:51;12.00;90.80
11229;DHT22;5671;47.936;8.716;2022-10-24T02:51:21;12.00;91.30
11229;DHT22;5671;47.936;8.716;2022-10-24T02:53:50;12.00;91.20
11229;DHT22;5671;47.936;8.716;2022-10-24T02:56:18;12.00;91.00
11229;DHT22;5671;47.936;8.716;2022-10-24T02:58:45;12.00;90.70
11229;DHT22;5671;47.936;8.716;2022-10-24T03:01:12;12.00;90.50
11229;DHT22;5671;47.936;8.716;2022-10-24T03:03:39;12.10;90.70
11229;DHT22;5671;47.936;8.716;2022-10-24T03:06:08;12.00;90.40
11229;DHT22;5671;47.936;8.716;2022-10-24T03:08:35;12.10;90.80
11229;DHT22;5671;47.936;8.716;2022-10-24T03:11:02;12.10;90.50
11229;DHT22;5671;47.936;8.716;2022-10-24T03:13:29;12.10;90.70
11229;DHT22;5671;47.936;8.716;2022-10-24T03:15:56;12.10;90.60
11229;DHT22;5671;47.936;8.716;2022-10-24T03:18:23;12.00;90.50
11229;DHT22;5671;47.936;8.716;2022-10-24T03:20:50;12.10;90.90
11229;DHT22;5671;47.936;8.716;2022-10-24T03:23:18;12.00;91.00
11229;DHT22;5671;47.936;8.716;2022-10-24T03:25:46;12.10;91.40
11229;DHT22;5671;47.936;8.716;2022-10-24T03:28:13;12.10;91.10
11229;DHT22;5671;47.936;8.716;2022-10-24T03:30:40;12.10;90.80
11229;DHT22;5671;47.936;8.716;2022-10-24T03:33:07;12.10;90.80
11229;DHT22;5671;47.936;8.716;2022-10-24T03:35:34;12.10;90.80
11229;DHT22;5671;47.936;8.716;2022-10-24T03:38:01;12.10;90.40
11229;DHT22;5671;47.936;8.716;2022-10-24T03:40:30;12.10;90.60
11229;DHT22;5671;47.936;8.716;2022-10-24T03:42:57;12.10;90.40
11229;DHT22;5671;47.936;8.716;2022-10-24T03:45:24;12.10;90.30
11229;DHT22;5671;47.936;8.716;2022-10-24T03:48:46;12.10;90.60
11229;DHT22;5671;47.936;8.716;2022-10-24T03:51:37;12.10;91.00
11229;DHT22;5671;47.936;8.716;2022-10-24T04:07:41;12.10;90.80
11229;DHT22;5671;47.936;8.716;2022-10-24T04:10:19;12.10;90.50
11229;DHT22;5671;47.936;8.716;2022-10-24T04:12:46;12.10;90.40
11229;DHT22;5671;47.936;8.716;2022-10-24T04:15:15;12.10;90.20
11229;DHT22;5671;47.936;8.716;2022-10-24T04:17:50;12.10;90.40
11229;DHT22;5671;47.936;8.716;2022-10-24T04:20:20;12.10;90.60
11229;DHT22;5671;47.936;8.716;2022-10-24T04:22:49;12.10;90.80
11229;DHT22;5671;47.936;8.716;2022-10-24T04:25:17;12.10;91.00
11229;DHT22;5671;47.936;8.716;2022-10-24T04:27:44;12.10;91.10
11229;DHT22;5671;47.936;8.716;2022-10-24T04:30:13;12.10;91.30
11229;DHT22;5671;47.936;8.716;2022-10-24T04:32:43;12.10;91.50
11229;DHT22;5671;47.936;8.716;2022-10-24T04:35:11;12.10;91.40
11229;DHT22;5671;47.936;8.716;2022-10-24T04:37:41;12.10;91.50
11229;DHT22;5671;47.936;8.716;2022-10-24T04:41:50;12.10;91.30
11229;DHT22;5671;47.936;8.716;2022-10-24T04:43:24;12.10;91.30
11229;DHT22;5671;47.936;8.716;2022-10-24T04:46:17;12.10;91.40
11229;DHT22;5671;47.936;8.716;2022-10-24T05:02:31;12.00;91.40
11229;DHT22;5671;47.936;8.716;2022-10-24T05:04:58;12.00;91.10
11229;DHT22;5671;47.936;8.716;2022-10-24T05:07:25;12.00;90.80
11229;DHT22;5671;47.936;8.716;2022-10-24T05:09:52;12.00;90.80
11229;DHT22;5671;47.936;8.716;2022-10-24T05:12:19;12.00;90.70
11229;DHT22;5671;47.936;8.716;2022-10-24T05:14:47;12.00;90.90
11229;DHT22;5671;47.936;8.716;2022-10-24T05:17:13;12.00;90.80
11229;DHT22;5671;47.936;8.716;2022-10-24T05:19:49;12.00;90.80
11229;DHT22;5671;47.936;8.716;2022-10-24T05:22:16;12.00;91.20
11229;DHT22;5671;47.936;8.716;2022-10-24T05:24:43;12.00;91.30
11229;DHT22;5671;47.936;8.716;2022-10-24T05:27:10;12.00;91.60
11229;DHT22;5671;47.936;8.716;2022-10-24T05:29:37;12.00;91.80
11229;DHT22;5671;47.936;8.716;2022-10-24T05:32:07;12.00;91.50
11229;DHT22;5671;47.936;8.716;2022-10-24T05:34:34;12.00;91.10
11229;DHT22;5671;47.936;8.716;2022-10-24T05:37:03;12.00;91.40
11229;DHT22;5671;47.936;8.716;2022-10-24T05:39:30;12.00;91.70
11229;DHT22;5671;47.936;8.716;2022-10-24T05:41:57;11.90;91.70
11229;DHT22;5671;47.936;8.716;2022-10-24T05:44:24;11.90;91.90
11229;DHT22;5671;47.936;8.716;2022-10-24T05:46:52;11.90;92.00
11229;DHT22;5671;47.936;8.716;2022-10-24T05:49:19;11.90;91.90
11229;DHT22;5671;47.936;8.716;2022-10-24T05:51:46;11.90;91.80
11229;DHT22;5671;47.936;8.716;2022-10-24T05:54:15;11.90;91.60
11229;DHT22;5671;47.936;8.716;2022-10-24T05:56:44;11.90;91.50
11229;DHT22;5671;47.936;8.716;2022-10-24T05:59:11;11.90;91.70
11229;DHT22;5671;47.936;8.716;2022-10-24T06:01:39;11.90;91.90
11229;DHT22;5671;47.936;8.716;2022-10-24T06:04:06;11.90;92.10
11229;DHT22;5671;47.936;8.716;2022-10-24T06:06:37;11.90;92.30
11229;DHT22;5671;47.936;8.716;2022-10-24T06:09:04;11.90;92.40
11229;DHT22;5671;47.936;8.716;2022-10-24T06:11:33;11.90;92.50
11229;DHT22;5671;47.936;8.716;2022-10-24T06:14:01;11.90;92.60
11229;DHT22;5671;47.936;8.716;2022-10-24T06:16:30;11.80;92.70
11229;DHT22;5671;47.936;8.716;2022-10-24T06:19:00;11.90;92.80
11229;DHT22;5671;47.936;8.716;2022-10-24T06:21:27;11.90;92.90
11229;DHT22;5671;47.936;8.716;2022-10-24T06:23:54;11.90;93.10
11229;DHT22;5671;47.936;8.716;2022-10-24T06:26:21;11.90;92.90
11229;DHT22;5671;47.936;8.716;2022-10-24T06:28:50;11.90;92.80
11229;DHT22;5671;47.936;8.716;2022-10-24T06:31:17;11.90;92.90
11229;DHT22;5671;47.936;8.716;2022-10-24T06:33:45;11.90;93.00
11229;DHT22;5671;47.936;8.716;2022-10-24T06:36:12;11.90;92.90
11229;DHT22;5671;47.936;8.716;2022-10-24T06:38:45;11.90;92.90
11229;DHT22;5671;47.936;8.716;2022-10-24T06:41:19;11.90;92.60
11229;DHT22;5671;47.936;8.716;2022-10-24T06:44:04;11.90;92.50
11229;DHT22;5671;47.936;8.716;2022-10-24T06:46:39;11.90;92.40
11229;DHT22;5671;47.936;8.716;2022-10-24T06:49:19;12.00;92.20
11229;DHT22;5671;47.936;8.716;2022-10-24T06:51:49;12.00;92.30
11229;DHT22;5671;47.936;8.716;2022-10-24T06:54:19;12.00;92.20
11229;DHT22;5671;47.936;8.716;2022-10-24T06:56:49;12.00;92.30
11229;DHT22;5671;47.936;8.716;2022-10-24T06:59:17;12.00;92.30
11229;DHT22;5671;47.936;8.716;2022-10-24T07:01:45;12.00;92.40
11229;DHT22;5671;47.936;8.716;2022-10-24T07:39:02;12.10;91.70
11229;DHT22;5671;47.936;8.716;2022-10-24T07:44:50;12.10;91.80
11229;DHT22;5671;47.936;8.716;2022-10-24T07:50:55;12.20;91.70
11229;DHT22;5671;47.936;8.716;2022-10-24T07:53:25;12.20;91.90
11229;DHT22;5671;47.936;8.716;2022-10-24T07:59:39;12.30;91.80
11229;DHT22;5671;47.936;8.716;2022-10-24T08:05:44;12.30;91.70
11229;DHT22;5671;47.936;8.716;2022-10-24T08:26:02;12.30;91.30
11229;DHT22;5671;47.936;8.716;2022-10-24T09:52:49;12.30;91.10
11229;DHT22;5671;47.936;8.716;2022-10-24T09:59:36;12.20;90.00
11229;DHT22;5671;47.936;8.716;2022-10-24T10:37:22;12.00;90.90
11229;DHT22;5671;47.936;8.716;2022-10-24T10:58:08;11.90;90.40
11229;DHT22;5671;47.936;8.716;2022-10-24T11:06:54;11.80;90.20
11229;DHT22;5671;47.936;8.716;2022-10-24T11:09:55;11.80;90.00
11229;DHT22;5671;47.936;8.716;2022-10-24T11:26:42;11.80;92.20
11229;DHT22;5671;47.936;8.716;2022-10-24T11:29:33;11.90;92.20
11229;DHT22;5671;47.936;8.716;2022-10-24T11:57:14;12.20;91.10
11229;DHT22;5671;47.936;8.716;2022-10-24T11:59:45;12.20;90.30
11229;DHT22;5671;47.936;8.716;2022-10-24T12:13:02;12.30;87.50
11229;DHT22;5671;47.936;8.716;2022-10-24T12:16:09;12.30;88.80
11229;DHT22;5671;47.936;8.716;2022-10-24T12:18:48;12.30;87.40
11229;DHT22;5671;47.936;8.716;2022-10-24T12:21:24;12.30;88.20
11229;DHT22;5671;47.936;8.716;2022-10-24T12:23:55;12.30;87.00
11229;DHT22;5671;47.936;8.716;2022-10-24T12:26:29;12.30;88.30
11229;DHT22;5671;47.936;8.716;2022-10-24T12:29:00;12.20;88.90
11229;DHT22;5671;47.936;8.716;2022-10-24T12:31:44;12.30;89.50
11229;DHT22;5671;47.936;8.716;2022-10-24T12:34:42;12.30;89.00
11229;DHT22;5671;47.936;8.716;2022-10-24T12:37:40;12.30;89.00
11229;DHT22;5671;47.936;8.716;2022-10-24T12:40:46;12.40;89.50
11229;DHT22;5671;47.936;8.716;2022-10-24T12:43:27;12.30;87.90
11229;DHT22;5671;47.936;8.716;2022-10-24T12:45:57;12.30;87.70
11229;DHT22;5671;47.936;8.716;2022-10-24T12:48:33;12.40;88.70
11229;DHT22;5671;47.936;8.716;2022-10-24T12:51:24;12.40;88.60
11229;DHT22;5671;47.936;8.716;2022-10-24T12:54:13;12.40;88.00
11229;DHT22;5671;47.936;8.716;2022-10-24T13:00:19;12.30;87.60
11229;DHT22;5671;47.936;8.716;2022-10-24T13:20:13;12.10;87.70
11229;DHT22;5671;47.936;8.716;2022-10-24T13:23:12;12.10;88.10
11229;DHT22;5671;47.936;8.716;2022-10-24T13:25:41;12.10;88.60
11229;DHT22;5671;47.936;8.716;2022-10-24T13:28:34;12.00;88.90
11229;DHT22;5671;47.936;8.716;2022-10-24T13:31:41;12.00;88.90
11229;DHT22;5671;47.936;8.716;2022-10-24T13:34:29;12.10;88.90
11229;DHT22;5671;47.936;8.716;2022-10-24T13:37:03;12.00;88.90
11229;DHT22;5671;47.936;8.716;2022-10-24T13:39:38;12.10;89.10
11229;DHT22;5671;47.936;8.716;2022-10-24T13:42:10;12.00;88.90
11229;DHT22;5671;47.936;8.716;2022-10-24T13:44:46;12.10;89.30
11229;DHT22;5671;47.936;8.716;2022-10-24T13:47:18;12.10;89.10
11229;DHT22;5671;47.936;8.716;2022-10-24T13:50:14;12.00;89.10
11229;DHT22;5671;47.936;8.716;2022-10-24T13:53:05;12.00;88.70
11229;DHT22;5671;47.936;8.716;2022-10-24T13:55:42;12.00;89.00
11229;DHT22;5671;47.936;8.716;2022-10-24T13:58:17;12.00;89.10
11229;DHT22;5671;47.936;8.716;2022-10-24T14:00:54;12.00;89.00
11229;DHT22;5671;47.936;8.716;2022-10-24T14:03:23;12.00;89.40
11229;DHT22;5671;47.936;8.716;2022-10-24T14:05:58;12.00;89.40
11229;DHT22;5671;47.936;8.716;2022-10-24T14:08:29;12.00;89.60
11229;DHT22;5671;47.936;8.716;2022-10-24T14:11:00;12.00;89.60
11229;DHT22;5671;47.936;8.716;2022-10-24T14:13:31;12.00;89.60
11229;DHT22;5671;47.936;8.716;2022-10-24T14:16:01;12.00;89.40
11229;DHT22;5671;47.936;8.716;2022-10-24T14:18:29;12.00;89.60
11229;DHT22;5671;47.936;8.716;2022-10-24T14:21:01;12.00;89.80
11229;DHT22;5671;47.936;8.716;2022-10-24T14:23:33;12.00;89.40
11229;DHT22;5671;47.936;8.716;2022-10-24T14:26:02;12.10;89.50
11229;DHT22;5671;47.936;8.716;2022-10-24T14:28:33;12.10;89.70
11229;DHT22;5671;47.936;8.716;2022-10-24T14:31:05;12.10;89.70
11229;DHT22;5671;47.936;8.716;2022-10-24T14:33:41;12.20;89.50
11229;DHT22;5671;47.936;8.716;2022-10-24T14:36:09;12.20;89.60
11229;DHT22;5671;47.936;8.716;2022-10-24T14:38:38;12.20;89.80
11229;DHT22;5671;47.936;8.716;2022-10-24T14:41:06;12.20;89.50
11229;DHT22;5671;47.936;8.716;2022-10-24T14:43:36;12.30;89.10
11229;DHT22;5671;47.936;8.716;2022-10-24T14:46:32;12.30;88.90
11229;DHT22;5671;47.936;8.716;2022-10-24T14:49:00;12.30;88.20
11229;DHT22;5671;47.936;8.716;2022-10-24T14:51:31;12.30;88.60
11229;DHT22;5671;47.936;8.716;2022-10-24T14:54:03;12.30;88.50
11229;DHT22;5671;47.936;8.716;2022-10-24T14:56:33;12.30;87.70
11229;DHT22;5671;47.936;8.716;2022-10-24T14:59:02;12.30;87.60
11229;DHT22;5671;47.936;8.716;2022-10-24T15:01:31;12.30;88.10
11229;DHT22;5671;47.936;8.716;2022-10-24T15:03:59;12.30;88.00
11229;DHT22;5671;47.936;8.716;2022-10-24T15:06:28;12.30;87.90
11229;DHT22;5671;47.936;8.716;2022-10-24T15:09:05;12.30;88.00
11229;DHT22;5671;47.936;8.716;2022-10-24T15:11:42;12.30;87.80
11229;DHT22;5671;47.936;8.716;2022-10-24T15:14:31;12.20;88.40
11229;DHT22;5671;47.936;8.716;2022-10-24T15:17:00;12.20;88.30
11229;DHT22;5671;47.936;8.716;2022-10-24T15:19:28;12.20;87.90
11229;DHT22;5671;47.936;8.716;2022-10-24T15:21:55;12.20;88.10
11229;DHT22;5671;47.936;8.716;2022-10-24T15:24:25;12.20;88.40
11229;DHT22;5671;47.936;8.716;2022-10-24T15:27:08;12.20;88.50
11229;DHT22;5671;47.936;8.716;2022-10-24T15:29:38;12.10;88.80
11229;DHT22;5671;47.936;8.716;2022-10-24T15:32:09;12.20;88.90
11229;DHT22;5671;47.936;8.716;2022-10-24T15:34:36;12.10;88.90
11229;DHT22;5671;47.936;8.716;2022-10-24T15:37:15;12.10;89.00
11229;DHT22;5671;47.936;8.716;2022-10-24T15:43:26;12.10;89.20
11229;DHT22;5671;47.936;8.716;2022-10-24T16:10:05;12.10;88.00
11229;DHT22;5671;47.936;8.716;2022-10-24T16:13:41;12.10;87.90
11229;DHT22;5671;47.936;8.716;2022-10-24T16:19:41;12.00;88.10
11229;DHT22;5671;47.936;8.716;2022-10-24T16:22:58;11.90;88.10
11229;DHT22;5671;47.936;8.716;2022-10-24T16:25:39;11.80;88.20
11229;DHT22;5671;47.936;8.716;2022-10-24T16:28:06;11.80;88.10
11229;DHT22;5671;47.936;8.716;2022-10-24T16:30:35;11.70;88.50
11229;DHT22;5671;47.936;8.716;2022-10-24T16:33:03;11.70;88.50
11229;DHT22;5671;47.936;8.716;2022-10-24T16:35:32;11.60;88.20
11229;DHT22;5671;47.936;8.716;2022-10-24T16:38:00;11.50;88.10
11229;DHT22;5671;47.936;8.716;2022-10-24T16:40:35;11.50;88.30
11229;DHT22;5671;47.936;8.716;2022-10-24T16:43:03;11.40;88.50
11229;DHT22;5671;47.936;8.716;2022-10-24T16:45:31;11.40;88.80
11229;DHT22;5671;47.936;8.716;2022-10-24T16:47:58;11.30;89.00
11229;DHT22;5671;47.936;8.716;2022-10-24T16:50:28;11.30;89.50
11229;DHT22;5671;47.936;8.716;2022-10-24T16:52:57;11.20;89.60
11229;DHT22;5671;47.936;8.716;2022-10-24T16:55:25;11.20;89.90
11229;DHT22;5671;47.936;8.716;2022-10-24T16:57:52;11.10;89.70
11229;DHT22;5671;47.936;8.716;2022-10-24T17:00:22;11.10;89.50
11229;DHT22;5671;47.936;8.716;2022-10-24T17:02:51;11.10;89.50
11229;DHT22;5671;47.936;8.716;2022-10-24T17:05:19;11.00;89.40
11229;DHT22;5671;47.936;8.716;2022-10-24T17:07:47;11.00;89.10
11229;DHT22;5671;47.936;8.716;2022-10-24T17:10:14;10.90;89.50
11229;DHT22;5671;47.936;8.716;2022-10-24T17:12:43;10.90;89.70
11229;DHT22;5671;47.936;8.716;2022-10-24T17:15:12;10.90;89.70
11229;DHT22;5671;47.936;8.716;2022-10-24T17:17:41;10.80;89.70
11229;DHT22;5671;47.936;8.716;2022-10-24T17:20:09;10.80;89.80
11229;DHT22;5671;47.936;8.716;2022-10-24T17:22:40;10.70;89.70
11229;DHT22;5671;47.936;8.716;2022-10-24T17:25:15;10.70;89.60
11229;DHT22;5671;47.936;8.716;2022-10-24T17:27:43;10.70;89.90
11229;DHT22;5671;47.936;8.716;2022-10-24T17:30:14;10.60;89.80
11229;DHT22;5671;47.936;8.716;2022-10-24T17:32:43;10.60;89.80
11229;DHT22;5671;47.936;8.716;2022-10-24T17:35:13;10.60;89.50
11229;DHT22;5671;47.936;8.716;2022-10-24T17:37:50;10.50;89.60
11229;DHT22;5671;47.936;8.716;2022-10-24T17:40:21;10.50;89.60
11229;DHT22;5671;47.936;8.716;2022-10-24T17:42:50;10.40;89.90
11229;DHT22;5671;47.936;8.716;2022-10-24T17:45:22;10.40;90.20
11229;DHT22;5671;47.936;8.716;2022-10-24T17:47:54;10.40;90.10
11229;DHT22;5671;47.936;8.716;2022-10-24T17:50:22;10.30;90.40
11229;DHT22;5671;47.936;8.716;2022-10-24T17:52:49;10.30;90.60
11229;DHT22;5671;47.936;8.716;2022-10-24T17:55:21;10.30;90.80
11229;DHT22;5671;47.936;8.716;2022-10-24T17:57:49;10.30;90.70
11229;DHT22;5671;47.936;8.716;2022-10-24T18:00:16;10.30;90.90
11229;DHT22;5671;47.936;8.716;2022-10-24T18:02:44;10.20;90.70
11229;DHT22;5671;47.936;8.716;2022-10-24T18:05:13;10.20;90.50
11229;DHT22;5671;47.936;8.716;2022-10-24T18:07:44;10.20;90.60
11229;DHT22;5671;47.936;8.716;2022-10-24T18:10:14;10.10;90.80
11229;DHT22;5671;47.936;8.716;2022-10-24T18:12:41;10.10;90.70
11229;DHT22;5671;47.936;8.716;2022-10-24T18:15:13;10.10;90.80
11229;DHT22;5671;47.936;8.716;2022-10-24T18:17:42;10.10;91.00
11229;DHT22;5671;47.936;8.716;2022-10-24T18:20:13;10.00;90.70
11229;DHT22;5671;47.936;8.716;2022-10-24T18:22:41;10.10;90.70
11229;DHT22;5671;47.936;8.716;2022-10-24T18:25:11;10.00;91.00
11229;DHT22;5671;47.936;8.716;2022-10-24T18:27:40;10.00;90.80
11229;DHT22;5671;47.936;8.716;2022-10-24T18:30:11;10.00;91.00
11229;DHT22;5671;47.936;8.716;2022-10-24T18:32:38;9.90;91.10
11229;DHT22;5671;47.936;8.716;2022-10-24T18:35:05;9.90;91.10
11229;DHT22;5671;47.936;8.716;2022-10-24T18:37:36;9.90;91.10
11229;DHT22;5671;47.936;8.716;2022-10-24T18:40:05;9.90;90.90
11229;DHT22;5671;47.936;8.716;2022-10-24T18:42:39;9.80;91.00
11229;DHT22;5671;47.936;8.716;2022-10-24T18:45:11;9.80;91.10
11229;DHT22;5671;47.936;8.716;2022-10-24T18:47:39;9.80;91.70
11229;DHT22;5671;47.936;8.716;2022-10-24T18:50:11;9.80;92.10
11229;DHT22;5671;47.936;8.716;2022-10-24T18:52:44;9.80;92.30
11229;DHT22;5671;47.936;8.716;2022-10-24T18:55:17;9.80;92.50
11229;DHT22;5671;47.936;8.716;2022-10-24T18:57:45;9.80;92.70
11229;DHT22;5671;47.936;8.716;2022-10-24T19:00:15;9.80;92.70
11229;DHT22;5671;47.936;8.716;2022-10-24T19:02:47;9.80;92.60
11229;DHT22;5671;47.936;8.716;2022-10-24T19:05:19;9.80;92.40
11229;DHT22;5671;47.936;8.716;2022-10-24T19:07:49;9.80;92.10
11229;DHT22;5671;47.936;8.716;2022-10-24T19:10:19;9.80;91.90
11229;DHT22;5671;47.936;8.716;2022-10-24T19:12:47;9.80;92.00
11229;DHT22;5671;47.936;8.716;2022-10-24T19:15:14;9.70;91.70
11229;DHT22;5671;47.936;8.716;2022-10-24T19:17:42;9.70;91.60
11229;DHT22;5671;47.936;8.716;2022-10-24T19:20:13;9.70;91.50
11229;DHT22;5671;47.936;8.716;2022-10-24T19:22:41;9.70;91.40
11229;DHT22;5671;47.936;8.716;2022-10-24T19:25:09;9.60;91.60
11229;DHT22;5671;47.936;8.716;2022-10-24T19:27:37;9.60;91.60
11229;DHT22;5671;47.936;8.716;2022-10-24T19:30:05;9.60;91.80
11229;DHT22;5671;47.936;8.716;2022-10-24T19:32:32;9.60;91.90
11229;DHT22;5671;47.936;8.716;2022-10-24T19:34:59;9.60;91.90
11229;DHT22;5671;47.936;8.716;2022-10-24T19:37:26;9.50;91.80
11229;DHT22;5671;47.936;8.716;2022-10-24T19:39:53;9.50;91.50
11229;DHT22;5671;47.936;8.716;2022-10-24T19:42:22;9.50;91.40
11229;DHT22;5671;47.936;8.716;2022-10-24T19:44:49;9.50;91.30
11229;DHT22;5671;47.936;8.716;2022-10-24T19:47:20;9.40;91.40
11229;DHT22;5671;47.936;8.716;2022-10-24T19:49:47;9.40;91.80
11229;DHT22;5671;47.936;8.716;2022-10-24T19:52:15;9.40;91.90
11229;DHT22;5671;47.936;8.716;2022-10-24T19:54:45;9.40;91.90
11229;DHT22;5671;47.936;8.716;2022-10-24T19:57:13;9.40;92.10
11229;DHT22;5671;47.936;8.716;2022-10-24T19:59:43;9.30;92.20
11229;DHT22;5671;47.936;8.716;2022-10-24T20:02:10;9.30;92.40
11229;DHT22;5671;47.936;8.716;2022-10-24T20:04:37;9.30;92.50
11229;DHT22;5671;47.936;8.716;2022-10-24T20:07:05;9.30;92.70
11229;DHT22;5671;47.936;8.716;2022-10-24T20:09:33;9.30;92.90
11229;DHT22;5671;47.936;8.716;2022-10-24T20:12:00;9.30;92.80
11229;DHT22;5671;47.936;8.716;2022-10-24T20:14:27;9.30;92.70
11229;DHT22;5671;47.936;8.716;2022-10-24T20:16:56;9.30;92.40
11229;DHT22;5671;47.936;8.716;2022-10-24T20:19:23;9.30;92.20
11229;DHT22;5671;47.936;8.716;2022-10-24T20:21:50;9.30;92.20
11229;DHT22;5671;47.936;8.716;2022-10-24T20:24:17;9.20;92.30
11229;DHT22;5671;47.936;8.716;2022-10-24T20:26:47;9.20;92.30
11229;DHT22;5671;47.936;8.716;2022-10-24T20:29:23;9.20;92.30
11229;DHT22;5671;47.936;8.716;2022-10-24T20:32:01;9.20;92.30
11229;DHT22;5671;47.936;8.716;2022-10-24T20:34:30;9.20;92.30
11229;DHT22;5671;47.936;8.716;2022-10-24T20:37:00;9.20;92.00
11229;DHT22;5671;47.936;8.716;2022-10-24T20:39:33;9.20;91.80
11229;DHT22;5671;47.936;8.716;2022-10-24T20:42:03;9.20;91.80
11229;DHT22;5671;47.936;8.716;2022-10-24T20:44:31;9.20;91.70
11229;DHT22;5671;47.936;8.716;2022-10-24T20:47:05;9.20;91.70
11229;DHT22;5671;47.936;8.716;2022-10-24T20:49:34;9.10;91.70
11229;DHT22;5671;47.936;8.716;2022-10-24T20:52:01;9.20;91.50
11229;DHT22;5671;47.936;8.716;2022-10-24T20:54:44;9.10;91.10
11229;DHT22;5671;47.936;8.716;2022-10-24T20:57:18;9.10;91.10
11229;DHT22;5671;47.936;8.716;2022-10-24T20:59:45;9.00;91.20
11229;DHT22;5671;47.936;8.716;2022-10-24T21:02:17;9.00;91.10
11229;DHT22;5671;47.936;8.716;2022-10-24T21:04:55;8.90;90.90
11229;DHT22;5671;47.936;8.716;2022-10-24T21:07:22;8.90;90.70
11229;DHT22;5671;47.936;8.716;2022-10-24T21:09:50;8.80;90.70
11229;DHT22;5671;47.936;8.716;2022-10-24T21:12:17;8.70;91.10
11229;DHT22;5671;47.936;8.716;2022-10-24T21:14:43;8.70;91.20
11229;DHT22;5671;47.936;8.716;2022-10-24T21:17:10;8.70;91.40
11229;DHT22;5671;47.936;8.716;2022-10-24T21:19:39;8.70;91.40
11229;DHT22;5671;47.936;8.716;2022-10-24T21:22:06;8.60;91.40
11229;DHT22;5671;47.936;8.716;2022-10-24T21:24:33;8.60;91.30
11229;DHT22;5671;47.936;8.716;2022-10-24T21:27:00;8.50;91.30
11229;DHT22;5671;47.936;8.716;2022-10-24T21:29:27;8.50;91.00
11229;DHT22;5671;47.936;8.716;2022-10-24T21:31:54;8.40;90.90
11229;DHT22;5671;47.936;8.716;2022-10-24T21:34:21;8.40;90.60
11229;DHT22;5671;47.936;8.716;2022-10-24T21:36:49;8.30;90.30
11229;DHT22;5671;47.936;8.716;2022-10-24T21:39:16;8.30;90.70
11229;DHT22;5671;47.936;8.716;2022-10-24T21:41:43;8.30;90.90
11229;DHT22;5671;47.936;8.716;2022-10-24T21:44:10;8.30;91.30
11229;DHT22;5671;47.936;8.716;2022-10-24T21:46:38;8.20;91.70
11229;DHT22;5671;47.936;8.716;2022-10-24T21:49:05;8.20;91.80
11229;DHT22;5671;47.936;8.716;2022-10-24T21:51:34;8.20;91.80
11229;DHT22;5671;47.936;8.716;2022-10-24T21:54:05;8.20;91.90
11229;DHT22;5671;47.936;8.716;2022-10-24T21:56:33;8.20;91.90
11229;DHT22;5671;47.936;8.716;2022-10-24T21:59:03;8.20;92.20
11229;DHT22;5671;47.936;8.716;2022-10-24T22:01:31;8.20;92.30
11229;DHT22;5671;47.936;8.716;2022-10-24T22:03:59;8.30;92.40
11229;DHT22;5671;47.936;8.716;2022-10-24T22:06:28;8.30;92.30